sensor_id;sensor_type;location;lat;lon;timestamp;P1;durP1;ratioP1;P2;durP2;ratioP2
33491;SDS011;20010;51.488;7.232;2022-07-21T00:03:59;18.88;;;17.38;;
33491;SDS011;20010;51.488;7.232;2022-07-21T00:06:28;17.48;;;16.08;;
33491;SDS011;20010;51.488;7.232;2022-07-21T00:09:02;18.02;;;16.73;;
33491;SDS011;20010;51.488;7.232;2022-07-21T00:11:46;17.08;;;15.85;;
33491;SDS011;20010;51.488;7.232;2022-07-21T00:14:17;17.33;;;16.13;;
33491;SDS011;20010;51.488;7.232;2022-07-21T00:19:19;19.40;;;17.65;;
33491;SDS011;20010;51.488;7.232;2022-07-21T00:21:48;18.35;;;16.77;;
33491;SDS011;20010;51.488;7.232;2022-07-21T00:24:16;18.38;;;16.98;;
33491;SDS011;20010;51.488;7.232;2022-07-21T00:26:45;18.50;;;17.13;;
33491;SDS011;20010;51.488;7.232;2022-07-21T00:29:14;20.38;;;18.67;;
33491;SDS011;20010;51.488;7.232;2022-07-21T00:31:43;18.90;;;17.27;;
33491;SDS011;20010;51.488;7.232;2022-07-21T00:34:21;19.30;;;17.52;;
33491;SDS011;20010;51.488;7.232;2022-07-21T00:36:52;20.52;;;18.83;;
33491;SDS011;20010;51.488;7.232;2022-07-21T00:39:20;19.08;;;17.48;;
33491;SDS011;20010;51.488;7.232;2022-07-21T00:41:49;19.42;;;17.92;;
33491;SDS011;20010;51.488;7.232;2022-07-21T00:44:22;18.67;;;17.08;;
33491;SDS011;20010;51.488;7.232;2022-07-21T00:46:53;16.17;;;14.88;;
33491;SDS011;20010;51.488;7.232;2022-07-21T00:49:21;18.52;;;17.00;;
33491;SDS011;20010;51.488;7.232;2022-07-21T00:51:55;17.63;;;16.05;;
33491;SDS011;20010;51.488;7.232;2022-07-21T00:54:21;17.17;;;15.93;;
33491;SDS011;20010;51.488;7.232;2022-07-21T00:56:51;15.60;;;14.40;;
33491;SDS011;20010;51.488;7.232;2022-07-21T00:59:18;16.42;;;15.23;;
33491;SDS011;20010;51.488;7.232;2022-07-21T01:01:49;15.85;;;14.60;;
33491;SDS011;20010;51.488;7.232;2022-07-21T01:04:19;15.15;;;13.95;;
33491;SDS011;20010;51.488;7.232;2022-07-21T01:06:54;16.00;;;14.63;;
33491;SDS011;20010;51.488;7.232;2022-07-21T01:09:28;15.02;;;13.73;;
33491;SDS011;20010;51.488;7.232;2022-07-21T01:11:58;15.32;;;14.05;;
33491;SDS011;20010;51.488;7.232;2022-07-21T01:14:30;14.25;;;13.18;;
33491;SDS011;20010;51.488;7.232;2022-07-21T01:17:02;15.88;;;14.65;;
33491;SDS011;20010;51.488;7.232;2022-07-21T01:19:35;15.18;;;14.07;;
33491;SDS011;20010;51.488;7.232;2022-07-21T01:22:12;14.57;;;13.57;;
33491;SDS011;20010;51.488;7.232;2022-07-21T01:24:41;14.82;;;13.43;;
33491;SDS011;20010;51.488;7.232;2022-07-21T01:27:09;15.95;;;14.75;;
33491;SDS011;20010;51.488;7.232;2022-07-21T01:29:39;16.20;;;14.80;;
33491;SDS011;20010;51.488;7.232;2022-07-21T01:32:09;15.18;;;13.95;;
33491;SDS011;20010;51.488;7.232;2022-07-21T01:34:43;14.32;;;13.27;;
33491;SDS011;20010;51.488;7.232;2022-07-21T01:37:14;16.60;;;15.40;;
33491;SDS011;20010;51.488;7.232;2022-07-21T01:39:47;15.68;;;14.48;;
33491;SDS011;20010;51.488;7.232;2022-07-21T01:42:34;15.82;;;14.68;;
33491;SDS011;20010;51.488;7.232;2022-07-21T01:45:03;17.40;;;16.10;;
33491;SDS011;20010;51.488;7.232;2022-07-21T01:47:33;17.42;;;16.13;;
33491;SDS011;20010;51.488;7.232;2022-07-21T01:50:07;17.65;;;16.45;;
33491;SDS011;20010;51.488;7.232;2022-07-21T01:52:42;17.80;;;16.23;;
33491;SDS011;20010;51.488;7.232;2022-07-21T01:55:19;17.55;;;16.20;;
33491;SDS011;20010;51.488;7.232;2022-07-21T01:57:48;17.73;;;16.25;;
33491;SDS011;20010;51.488;7.232;2022-07-21T02:00:23;18.52;;;16.83;;
33491;SDS011;20010;51.488;7.232;2022-07-21T02:02:55;18.52;;;16.92;;
33491;SDS011;20010;51.488;7.232;2022-07-21T02:05:25;38.28;;;18.42;;
33491;SDS011;20010;51.488;7.232;2022-07-21T02:07:57;18.75;;;17.13;;
33491;SDS011;20010;51.488;7.232;2022-07-21T02:10:29;18.90;;;17.40;;
33491;SDS011;20010;51.488;7.232;2022-07-21T02:12:58;17.33;;;15.93;;
33491;SDS011;20010;51.488;7.232;2022-07-21T02:15:29;16.67;;;15.35;;
33491;SDS011;20010;51.488;7.232;2022-07-21T02:18:07;16.13;;;14.82;;
33491;SDS011;20010;51.488;7.232;2022-07-21T02:20:35;16.08;;;14.88;;
33491;SDS011;20010;51.488;7.232;2022-07-21T02:23:03;16.20;;;14.73;;
33491;SDS011;20010;51.488;7.232;2022-07-21T02:25:39;15.88;;;14.68;;
33491;SDS011;20010;51.488;7.232;2022-07-21T02:28:06;15.60;;;14.20;;
33491;SDS011;20010;51.488;7.232;2022-07-21T02:30:34;15.52;;;14.20;;
33491;SDS011;20010;51.488;7.232;2022-07-21T02:33:05;14.00;;;12.80;;
33491;SDS011;20010;51.488;7.232;2022-07-21T02:35:37;13.70;;;12.60;;
33491;SDS011;20010;51.488;7.232;2022-07-21T02:38:28;12.95;;;12.05;;
33491;SDS011;20010;51.488;7.232;2022-07-21T02:41:06;12.55;;;11.50;;
33491;SDS011;20010;51.488;7.232;2022-07-21T02:43:40;12.25;;;11.35;;
33491;SDS011;20010;51.488;7.232;2022-07-21T02:46:24;12.60;;;11.75;;
33491;SDS011;20010;51.488;7.232;2022-07-21T02:48:55;12.52;;;11.60;;
33491;SDS011;20010;51.488;7.232;2022-07-21T02:51:26;12.77;;;11.85;;
33491;SDS011;20010;51.488;7.232;2022-07-21T02:54:03;12.50;;;11.60;;
33491;SDS011;20010;51.488;7.232;2022-07-21T02:56:34;12.95;;;12.02;;
33491;SDS011;20010;51.488;7.232;2022-07-21T02:59:03;12.65;;;11.65;;
33491;SDS011;20010;51.488;7.232;2022-07-21T03:01:31;13.43;;;12.32;;
33491;SDS011;20010;51.488;7.232;2022-07-21T03:04:07;12.63;;;11.65;;
33491;SDS011;20010;51.488;7.232;2022-07-21T03:06:42;12.65;;;11.70;;
33491;SDS011;20010;51.488;7.232;2022-07-21T03:09:34;14.13;;;13.10;;
33491;SDS011;20010;51.488;7.232;2022-07-21T03:12:18;14.10;;;12.90;;
33491;SDS011;20010;51.488;7.232;2022-07-21T03:15:06;14.43;;;13.32;;
33491;SDS011;20010;51.488;7.232;2022-07-21T03:17:40;14.48;;;13.18;;
33491;SDS011;20010;51.488;7.232;2022-07-21T03:20:32;14.85;;;13.57;;
33491;SDS011;20010;51.488;7.232;2022-07-21T03:23:07;13.82;;;12.73;;
33491;SDS011;20010;51.488;7.232;2022-07-21T03:25:46;13.65;;;12.55;;
33491;SDS011;20010;51.488;7.232;2022-07-21T03:28:21;13.57;;;12.40;;
33491;SDS011;20010;51.488;7.232;2022-07-21T03:31:13;13.40;;;12.38;;
33491;SDS011;20010;51.488;7.232;2022-07-21T03:33:45;14.82;;;13.60;;
33491;SDS011;20010;51.488;7.232;2022-07-21T03:36:20;15.55;;;14.35;;
33491;SDS011;20010;51.488;7.232;2022-07-21T03:39:01;13.90;;;12.80;;
33491;SDS011;20010;51.488;7.232;2022-07-21T03:41:31;14.82;;;13.73;;
33491;SDS011;20010;51.488;7.232;2022-07-21T03:44:15;15.48;;;14.18;;
33491;SDS011;20010;51.488;7.232;2022-07-21T03:46:50;14.70;;;13.60;;
33491;SDS011;20010;51.488;7.232;2022-07-21T03:49:26;14.77;;;13.65;;
33491;SDS011;20010;51.488;7.232;2022-07-21T03:52:11;16.27;;;15.02;;
33491;SDS011;20010;51.488;7.232;2022-07-21T03:54:47;15.93;;;14.35;;
33491;SDS011;20010;51.488;7.232;2022-07-21T03:58:13;16.63;;;15.32;;
33491;SDS011;20010;51.488;7.232;2022-07-21T04:00:53;15.95;;;14.70;;
33491;SDS011;20010;51.488;7.232;2022-07-21T04:03:26;15.57;;;14.38;;
33491;SDS011;20010;51.488;7.232;2022-07-21T04:06:03;16.05;;;14.75;;
33491;SDS011;20010;51.488;7.232;2022-07-21T04:11:26;14.70;;;13.60;;
33491;SDS011;20010;51.488;7.232;2022-07-21T04:13:57;14.88;;;13.75;;
33491;SDS011;20010;51.488;7.232;2022-07-21T04:16:30;14.23;;;13.23;;
33491;SDS011;20010;51.488;7.232;2022-07-21T04:19:05;14.20;;;13.10;;
33491;SDS011;20010;51.488;7.232;2022-07-21T04:21:45;14.32;;;13.13;;
33491;SDS011;20010;51.488;7.232;2022-07-21T04:24:15;14.48;;;13.38;;
33491;SDS011;20010;51.488;7.232;2022-07-21T04:26:50;14.63;;;13.63;;
33491;SDS011;20010;51.488;7.232;2022-07-21T04:29:30;14.02;;;12.93;;
33491;SDS011;20010;51.488;7.232;2022-07-21T04:32:11;14.70;;;13.50;;
33491;SDS011;20010;51.488;7.232;2022-07-21T04:35:00;14.88;;;13.57;;
33491;SDS011;20010;51.488;7.232;2022-07-21T04:37:33;16.23;;;14.68;;
33491;SDS011;20010;51.488;7.232;2022-07-21T04:40:10;16.70;;;15.25;;
33491;SDS011;20010;51.488;7.232;2022-07-21T04:42:41;17.20;;;15.63;;
33491;SDS011;20010;51.488;7.232;2022-07-21T04:45:09;16.77;;;15.38;;
33491;SDS011;20010;51.488;7.232;2022-07-21T04:50:19;16.90;;;15.27;;
33491;SDS011;20010;51.488;7.232;2022-07-21T04:52:53;17.83;;;16.45;;
33491;SDS011;20010;51.488;7.232;2022-07-21T04:55:28;18.13;;;16.42;;
33491;SDS011;20010;51.488;7.232;2022-07-21T04:58:07;19.08;;;17.55;;
33491;SDS011;20010;51.488;7.232;2022-07-21T05:00:37;19.05;;;17.35;;
33491;SDS011;20010;51.488;7.232;2022-07-21T05:03:06;19.60;;;17.83;;
33491;SDS011;20010;51.488;7.232;2022-07-21T05:05:35;19.20;;;17.63;;
33491;SDS011;20010;51.488;7.232;2022-07-21T05:08:03;20.80;;;19.00;;
33491;SDS011;20010;51.488;7.232;2022-07-21T05:10:31;19.45;;;17.85;;
33491;SDS011;20010;51.488;7.232;2022-07-21T05:12:59;20.30;;;18.63;;
33491;SDS011;20010;51.488;7.232;2022-07-21T05:15:28;21.33;;;19.52;;
33491;SDS011;20010;51.488;7.232;2022-07-21T05:17:58;21.90;;;19.98;;
33491;SDS011;20010;51.488;7.232;2022-07-21T05:21:02;21.88;;;20.17;;
33491;SDS011;20010;51.488;7.232;2022-07-21T05:23:35;21.15;;;19.33;;
33491;SDS011;20010;51.488;7.232;2022-07-21T05:26:05;21.65;;;19.80;;
33491;SDS011;20010;51.488;7.232;2022-07-21T05:28:36;21.60;;;19.85;;
33491;SDS011;20010;51.488;7.232;2022-07-21T05:31:19;23.20;;;21.30;;
33491;SDS011;20010;51.488;7.232;2022-07-21T05:33:48;23.58;;;21.58;;
33491;SDS011;20010;51.488;7.232;2022-07-21T05:36:19;24.83;;;22.73;;
33491;SDS011;20010;51.488;7.232;2022-07-21T05:38:52;25.70;;;23.42;;
33491;SDS011;20010;51.488;7.232;2022-07-21T05:41:22;25.55;;;23.13;;
33491;SDS011;20010;51.488;7.232;2022-07-21T05:43:53;23.00;;;20.90;;
33491;SDS011;20010;51.488;7.232;2022-07-21T05:46:25;23.70;;;21.70;;
33491;SDS011;20010;51.488;7.232;2022-07-21T05:49:06;23.65;;;21.38;;
33491;SDS011;20010;51.488;7.232;2022-07-21T05:51:39;23.83;;;21.65;;
33491;SDS011;20010;51.488;7.232;2022-07-21T05:54:09;23.17;;;21.10;;
33491;SDS011;20010;51.488;7.232;2022-07-21T05:56:50;23.42;;;21.25;;
33491;SDS011;20010;51.488;7.232;2022-07-21T05:59:18;23.65;;;21.73;;
33491;SDS011;20010;51.488;7.232;2022-07-21T06:01:49;23.35;;;21.33;;
33491;SDS011;20010;51.488;7.232;2022-07-21T06:04:20;23.17;;;21.20;;
33491;SDS011;20010;51.488;7.232;2022-07-21T06:07:00;23.87;;;21.87;;
33491;SDS011;20010;51.488;7.232;2022-07-21T06:09:30;23.70;;;21.70;;
33491;SDS011;20010;51.488;7.232;2022-07-21T06:12:00;23.00;;;21.20;;
33491;SDS011;20010;51.488;7.232;2022-07-21T06:14:31;23.02;;;21.13;;
33491;SDS011;20010;51.488;7.232;2022-07-21T06:17:22;24.10;;;22.00;;
33491;SDS011;20010;51.488;7.232;2022-07-21T06:19:52;24.20;;;22.00;;
33491;SDS011;20010;51.488;7.232;2022-07-21T06:22:39;23.45;;;21.48;;
33491;SDS011;20010;51.488;7.232;2022-07-21T06:25:23;22.85;;;20.80;;
33491;SDS011;20010;51.488;7.232;2022-07-21T06:28:04;23.38;;;21.33;;
33491;SDS011;20010;51.488;7.232;2022-07-21T06:30:39;24.55;;;22.23;;
33491;SDS011;20010;51.488;7.232;2022-07-21T06:33:22;23.08;;;21.08;;
33491;SDS011;20010;51.488;7.232;2022-07-21T06:35:57;23.55;;;21.55;;
33491;SDS011;20010;51.488;7.232;2022-07-21T06:38:42;23.27;;;21.15;;
33491;SDS011;20010;51.488;7.232;2022-07-21T06:41:27;21.58;;;19.58;;
33491;SDS011;20010;51.488;7.232;2022-07-21T06:44:15;21.95;;;20.05;;
33491;SDS011;20010;51.488;7.232;2022-07-21T06:47:01;21.95;;;20.35;;
33491;SDS011;20010;51.488;7.232;2022-07-21T06:49:42;21.05;;;19.45;;
33491;SDS011;20010;51.488;7.232;2022-07-21T06:52:17;20.95;;;19.20;;
33491;SDS011;20010;51.488;7.232;2022-07-21T06:54:50;20.30;;;18.23;;
33491;SDS011;20010;51.488;7.232;2022-07-21T06:57:19;18.77;;;17.23;;
33491;SDS011;20010;51.488;7.232;2022-07-21T06:59:52;18.17;;;16.60;;
33491;SDS011;20010;51.488;7.232;2022-07-21T07:02:25;17.73;;;16.33;;
33491;SDS011;20010;51.488;7.232;2022-07-21T07:04:57;18.27;;;16.65;;
33491;SDS011;20010;51.488;7.232;2022-07-21T07:07:32;18.02;;;16.60;;
33491;SDS011;20010;51.488;7.232;2022-07-21T07:10:05;17.60;;;16.05;;
33491;SDS011;20010;51.488;7.232;2022-07-21T07:12:38;18.15;;;16.63;;
33491;SDS011;20010;51.488;7.232;2022-07-21T07:15:28;16.25;;;15.00;;
33491;SDS011;20010;51.488;7.232;2022-07-21T07:17:58;16.83;;;15.68;;
33491;SDS011;20010;51.488;7.232;2022-07-21T07:20:26;17.35;;;15.95;;
33491;SDS011;20010;51.488;7.232;2022-07-21T07:22:59;16.83;;;15.52;;
33491;SDS011;20010;51.488;7.232;2022-07-21T07:25:35;16.00;;;14.82;;
33491;SDS011;20010;51.488;7.232;2022-07-21T07:28:07;18.52;;;16.75;;
33491;SDS011;20010;51.488;7.232;2022-07-21T07:30:36;16.85;;;15.20;;
33491;SDS011;20010;51.488;7.232;2022-07-21T07:33:04;16.45;;;15.05;;
33491;SDS011;20010;51.488;7.232;2022-07-21T07:35:32;16.30;;;14.73;;
33491;SDS011;20010;51.488;7.232;2022-07-21T07:38:01;15.35;;;13.95;;
33491;SDS011;20010;51.488;7.232;2022-07-21T07:40:31;15.25;;;13.93;;
33491;SDS011;20010;51.488;7.232;2022-07-21T07:43:01;14.77;;;13.57;;
33491;SDS011;20010;51.488;7.232;2022-07-21T07:45:34;13.75;;;12.50;;
33491;SDS011;20010;51.488;7.232;2022-07-21T07:48:03;13.98;;;12.85;;
33491;SDS011;20010;51.488;7.232;2022-07-21T07:50:34;14.50;;;13.30;;
33491;SDS011;20010;51.488;7.232;2022-07-21T07:53:21;13.50;;;12.40;;
33491;SDS011;20010;51.488;7.232;2022-07-21T07:55:54;12.10;;;11.13;;
33491;SDS011;20010;51.488;7.232;2022-07-21T07:58:24;11.15;;;10.32;;
33491;SDS011;20010;51.488;7.232;2022-07-21T08:00:52;11.32;;;10.18;;
33491;SDS011;20010;51.488;7.232;2022-07-21T08:03:29;11.40;;;10.35;;
33491;SDS011;20010;51.488;7.232;2022-07-21T08:05:59;11.25;;;10.35;;
33491;SDS011;20010;51.488;7.232;2022-07-21T08:08:49;11.02;;;10.15;;
33491;SDS011;20010;51.488;7.232;2022-07-21T08:11:21;12.18;;;11.23;;
33491;SDS011;20010;51.488;7.232;2022-07-21T08:13:48;11.75;;;10.65;;
33491;SDS011;20010;51.488;7.232;2022-07-21T08:16:18;12.23;;;11.27;;
33491;SDS011;20010;51.488;7.232;2022-07-21T08:18:49;13.05;;;11.73;;
33491;SDS011;20010;51.488;7.232;2022-07-21T08:21:28;13.45;;;12.20;;
33491;SDS011;20010;51.488;7.232;2022-07-21T08:24:20;13.15;;;12.13;;
33491;SDS011;20010;51.488;7.232;2022-07-21T08:26:48;12.80;;;11.55;;
33491;SDS011;20010;51.488;7.232;2022-07-21T08:29:22;11.82;;;10.80;;
33491;SDS011;20010;51.488;7.232;2022-07-21T08:32:02;12.13;;;11.13;;
33491;SDS011;20010;51.488;7.232;2022-07-21T08:34:39;12.60;;;11.48;;
33491;SDS011;20010;51.488;7.232;2022-07-21T08:37:10;12.50;;;11.45;;
33491;SDS011;20010;51.488;7.232;2022-07-21T08:39:40;11.25;;;10.55;;
33491;SDS011;20010;51.488;7.232;2022-07-21T08:42:09;11.75;;;10.73;;
33491;SDS011;20010;51.488;7.232;2022-07-21T08:44:44;12.05;;;11.25;;
33491;SDS011;20010;51.488;7.232;2022-07-21T08:47:12;10.90;;;10.00;;
33491;SDS011;20010;51.488;7.232;2022-07-21T08:49:41;11.75;;;10.70;;
33491;SDS011;20010;51.488;7.232;2022-07-21T08:52:08;11.13;;;10.30;;
33491;SDS011;20010;51.488;7.232;2022-07-21T08:54:38;10.82;;;10.13;;
33491;SDS011;20010;51.488;7.232;2022-07-21T08:57:14;10.98;;;10.25;;
33491;SDS011;20010;51.488;7.232;2022-07-21T08:59:54;10.57;;;9.63;;
33491;SDS011;20010;51.488;7.232;2022-07-21T09:02:30;10.15;;;9.45;;
33491;SDS011;20010;51.488;7.232;2022-07-21T09:05:04;9.68;;;9.00;;
33491;SDS011;20010;51.488;7.232;2022-07-21T09:07:52;10.20;;;9.40;;
33491;SDS011;20010;51.488;7.232;2022-07-21T09:10:30;10.63;;;9.93;;
33491;SDS011;20010;51.488;7.232;2022-07-21T09:13:00;10.70;;;9.70;;
33491;SDS011;20010;51.488;7.232;2022-07-21T09:15:30;10.95;;;9.45;;
33491;SDS011;20010;51.488;7.232;2022-07-21T09:18:10;10.88;;;10.07;;
33491;SDS011;20010;51.488;7.232;2022-07-21T09:20:49;10.07;;;9.35;;
33491;SDS011;20010;51.488;7.232;2022-07-21T09:25:54;10.90;;;10.20;;
33491;SDS011;20010;51.488;7.232;2022-07-21T09:28:38;10.50;;;9.65;;
33491;SDS011;20010;51.488;7.232;2022-07-21T09:31:09;10.68;;;9.70;;
33491;SDS011;20010;51.488;7.232;2022-07-21T09:36:17;9.48;;;8.68;;
33491;SDS011;20010;51.488;7.232;2022-07-21T09:38:52;9.40;;;8.65;;
33491;SDS011;20010;51.488;7.232;2022-07-21T09:41:32;8.25;;;7.65;;
33491;SDS011;20010;51.488;7.232;2022-07-21T09:44:00;9.10;;;8.40;;
33491;SDS011;20010;51.488;7.232;2022-07-21T09:46:41;9.20;;;8.50;;
33491;SDS011;20010;51.488;7.232;2022-07-21T09:49:16;9.77;;;9.07;;
33491;SDS011;20010;51.488;7.232;2022-07-21T09:55:12;9.38;;;8.60;;
33491;SDS011;20010;51.488;7.232;2022-07-21T09:57:45;10.05;;;9.07;;
33491;SDS011;20010;51.488;7.232;2022-07-21T10:00:36;10.52;;;9.57;;
33491;SDS011;20010;51.488;7.232;2022-07-21T10:03:05;9.98;;;9.18;;
33491;SDS011;20010;51.488;7.232;2022-07-21T10:05:54;9.48;;;8.77;;
33491;SDS011;20010;51.488;7.232;2022-07-21T10:08:39;9.98;;;9.35;;
33491;SDS011;20010;51.488;7.232;2022-07-21T10:11:21;11.30;;;10.23;;
33491;SDS011;20010;51.488;7.232;2022-07-21T10:13:55;10.88;;;9.98;;
33491;SDS011;20010;51.488;7.232;2022-07-21T10:16:37;10.18;;;9.40;;
33491;SDS011;20010;51.488;7.232;2022-07-21T10:19:31;9.93;;;9.05;;
33491;SDS011;20010;51.488;7.232;2022-07-21T10:22:18;11.05;;;10.13;;
33491;SDS011;20010;51.488;7.232;2022-07-21T10:25:31;10.60;;;9.90;;
33491;SDS011;20010;51.488;7.232;2022-07-21T10:28:20;11.15;;;10.25;;
33491;SDS011;20010;51.488;7.232;2022-07-21T10:33:58;11.27;;;10.32;;
33491;SDS011;20010;51.488;7.232;2022-07-21T10:41:44;10.77;;;9.93;;
33491;SDS011;20010;51.488;7.232;2022-07-21T10:47:22;11.77;;;10.93;;
33491;SDS011;20010;51.488;7.232;2022-07-21T10:50:02;11.77;;;10.90;;
33491;SDS011;20010;51.488;7.232;2022-07-21T10:53:29;10.85;;;9.98;;
33491;SDS011;20010;51.488;7.232;2022-07-21T10:55:49;10.55;;;9.73;;
33491;SDS011;20010;51.488;7.232;2022-07-21T10:58:31;12.43;;;10.02;;
33491;SDS011;20010;51.488;7.232;2022-07-21T11:01:20;10.75;;;9.98;;
33491;SDS011;20010;51.488;7.232;2022-07-21T11:04:14;11.13;;;10.20;;
33491;SDS011;20010;51.488;7.232;2022-07-21T11:06:49;12.63;;;11.55;;
33491;SDS011;20010;51.488;7.232;2022-07-21T11:09:20;11.75;;;10.85;;
33491;SDS011;20010;51.488;7.232;2022-07-21T11:11:59;12.68;;;11.52;;
33491;SDS011;20010;51.488;7.232;2022-07-21T11:14:44;12.65;;;11.63;;
33491;SDS011;20010;51.488;7.232;2022-07-21T11:17:25;13.82;;;12.63;;
33491;SDS011;20010;51.488;7.232;2022-07-21T11:22:51;14.50;;;13.02;;
33491;SDS011;20010;51.488;7.232;2022-07-21T11:25:28;13.95;;;12.77;;
33491;SDS011;20010;51.488;7.232;2022-07-21T11:27:57;13.45;;;12.25;;
33491;SDS011;20010;51.488;7.232;2022-07-21T11:30:39;14.48;;;13.00;;
33491;SDS011;20010;51.488;7.232;2022-07-21T11:33:20;14.82;;;13.70;;
33491;SDS011;20010;51.488;7.232;2022-07-21T11:35:49;15.40;;;14.18;;
33491;SDS011;20010;51.488;7.232;2022-07-21T11:38:19;14.80;;;13.65;;
33491;SDS011;20010;51.488;7.232;2022-07-21T11:41:16;16.23;;;14.63;;
33491;SDS011;20010;51.488;7.232;2022-07-21T11:43:48;16.02;;;14.60;;
33491;SDS011;20010;51.488;7.232;2022-07-21T11:46:18;16.10;;;14.85;;
33491;SDS011;20010;51.488;7.232;2022-07-21T11:49:01;16.50;;;15.18;;
33491;SDS011;20010;51.488;7.232;2022-07-21T11:51:33;15.52;;;14.15;;
33491;SDS011;20010;51.488;7.232;2022-07-21T11:54:18;15.40;;;14.00;;
33491;SDS011;20010;51.488;7.232;2022-07-21T11:57:02;18.08;;;16.42;;
33491;SDS011;20010;51.488;7.232;2022-07-21T11:59:40;15.80;;;14.48;;
33491;SDS011;20010;51.488;7.232;2022-07-21T12:04:58;14.40;;;13.18;;
33491;SDS011;20010;51.488;7.232;2022-07-21T12:07:45;12.23;;;11.43;;
33491;SDS011;20010;51.488;7.232;2022-07-21T12:10:24;12.98;;;12.07;;
33491;SDS011;20010;51.488;7.232;2022-07-21T12:13:03;12.13;;;11.23;;
33491;SDS011;20010;51.488;7.232;2022-07-21T12:15:35;12.15;;;11.35;;
33491;SDS011;20010;51.488;7.232;2022-07-21T12:20:49;12.48;;;11.35;;
33491;SDS011;20010;51.488;7.232;2022-07-21T12:26:01;11.80;;;10.90;;
33491;SDS011;20010;51.488;7.232;2022-07-21T12:28:50;11.27;;;10.48;;
33491;SDS011;20010;51.488;7.232;2022-07-21T12:31:43;13.00;;;11.93;;
33491;SDS011;20010;51.488;7.232;2022-07-21T12:34:21;13.10;;;11.88;;
33491;SDS011;20010;51.488;7.232;2022-07-21T12:36:53;11.90;;;11.20;;
33491;SDS011;20010;51.488;7.232;2022-07-21T12:39:25;12.70;;;11.68;;
33491;SDS011;20010;51.488;7.232;2022-07-21T12:45:09;12.32;;;11.13;;
33491;SDS011;20010;51.488;7.232;2022-07-21T12:47:41;11.60;;;10.80;;
33491;SDS011;20010;51.488;7.232;2022-07-21T12:50:33;12.05;;;11.25;;
33491;SDS011;20010;51.488;7.232;2022-07-21T12:53:11;11.30;;;10.60;;
33491;SDS011;20010;51.488;7.232;2022-07-21T12:55:46;13.07;;;11.90;;
33491;SDS011;20010;51.488;7.232;2022-07-21T12:58:16;10.98;;;10.18;;
33491;SDS011;20010;51.488;7.232;2022-07-21T13:00:56;10.75;;;10.10;;
33491;SDS011;20010;51.488;7.232;2022-07-21T13:03:29;11.40;;;10.60;;
33491;SDS011;20010;51.488;7.232;2022-07-21T13:06:01;10.55;;;9.85;;
33491;SDS011;20010;51.488;7.232;2022-07-21T13:08:37;10.43;;;9.73;;
33491;SDS011;20010;51.488;7.232;2022-07-21T13:11:16;12.77;;;11.90;;
33491;SDS011;20010;51.488;7.232;2022-07-21T13:13:48;11.02;;;10.13;;
33491;SDS011;20010;51.488;7.232;2022-07-21T13:16:22;10.18;;;9.52;;
33491;SDS011;20010;51.488;7.232;2022-07-21T13:18:52;10.25;;;9.30;;
33491;SDS011;20010;51.488;7.232;2022-07-21T13:21:28;10.18;;;9.48;;
33491;SDS011;20010;51.488;7.232;2022-07-21T13:23:59;10.30;;;9.55;;
33491;SDS011;20010;51.488;7.232;2022-07-21T13:26:31;10.75;;;9.90;;
33491;SDS011;20010;51.488;7.232;2022-07-21T13:29:10;10.18;;;9.50;;
33491;SDS011;20010;51.488;7.232;2022-07-21T13:31:45;10.15;;;9.45;;
33491;SDS011;20010;51.488;7.232;2022-07-21T13:34:40;9.98;;;9.25;;
33491;SDS011;20010;51.488;7.232;2022-07-21T13:37:32;9.35;;;8.65;;
33491;SDS011;20010;51.488;7.232;2022-07-21T13:39:59;9.45;;;8.82;;
33491;SDS011;20010;51.488;7.232;2022-07-21T13:42:52;13.88;;;12.88;;
33491;SDS011;20010;51.488;7.232;2022-07-21T13:45:56;10.02;;;9.23;;
33491;SDS011;20010;51.488;7.232;2022-07-21T13:48:27;9.88;;;9.10;;
33491;SDS011;20010;51.488;7.232;2022-07-21T13:51:12;10.30;;;9.27;;
33491;SDS011;20010;51.488;7.232;2022-07-21T13:54:04;9.88;;;9.27;;
33491;SDS011;20010;51.488;7.232;2022-07-21T13:56:34;10.48;;;9.63;;
33491;SDS011;20010;51.488;7.232;2022-07-21T13:59:05;9.98;;;9.30;;
33491;SDS011;20010;51.488;7.232;2022-07-21T14:02:12;13.70;;;12.70;;
33491;SDS011;20010;51.488;7.232;2022-07-21T14:04:47;11.98;;;11.07;;
33491;SDS011;20010;51.488;7.232;2022-07-21T14:07:27;13.63;;;12.40;;
33491;SDS011;20010;51.488;7.232;2022-07-21T14:10:13;12.45;;;11.55;;
33491;SDS011;20010;51.488;7.232;2022-07-21T14:12:52;12.65;;;11.60;;
33491;SDS011;20010;51.488;7.232;2022-07-21T14:15:23;13.10;;;12.05;;
33491;SDS011;20010;51.488;7.232;2022-07-21T14:17:55;12.20;;;11.30;;
33491;SDS011;20010;51.488;7.232;2022-07-21T14:20:26;12.50;;;11.70;;
33491;SDS011;20010;51.488;7.232;2022-07-21T14:22:56;12.90;;;12.00;;
33491;SDS011;20010;51.488;7.232;2022-07-21T14:25:25;13.05;;;12.00;;
33491;SDS011;20010;51.488;7.232;2022-07-21T14:27:58;11.75;;;10.98;;
33491;SDS011;20010;51.488;7.232;2022-07-21T14:30:34;11.93;;;11.07;;
33491;SDS011;20010;51.488;7.232;2022-07-21T14:33:07;11.63;;;10.88;;
33491;SDS011;20010;51.488;7.232;2022-07-21T14:35:38;12.10;;;11.00;;
33491;SDS011;20010;51.488;7.232;2022-07-21T14:38:06;12.60;;;11.70;;
33491;SDS011;20010;51.488;7.232;2022-07-21T14:40:34;10.93;;;10.23;;
33491;SDS011;20010;51.488;7.232;2022-07-21T14:43:07;10.73;;;9.93;;
33491;SDS011;20010;51.488;7.232;2022-07-21T14:45:40;10.45;;;9.75;;
33491;SDS011;20010;51.488;7.232;2022-07-21T14:48:08;10.55;;;9.85;;
33491;SDS011;20010;51.488;7.232;2022-07-21T14:50:48;10.45;;;9.75;;
33491;SDS011;20010;51.488;7.232;2022-07-21T14:53:22;10.00;;;9.40;;
33491;SDS011;20010;51.488;7.232;2022-07-21T14:55:50;10.45;;;9.77;;
33491;SDS011;20010;51.488;7.232;2022-07-21T14:58:19;9.68;;;9.15;;
33491;SDS011;20010;51.488;7.232;2022-07-21T15:00:50;11.40;;;10.60;;
33491;SDS011;20010;51.488;7.232;2022-07-21T15:03:24;10.70;;;10.00;;
33491;SDS011;20010;51.488;7.232;2022-07-21T15:05:54;12.05;;;11.15;;
33491;SDS011;20010;51.488;7.232;2022-07-21T15:10:52;13.20;;;12.20;;
33491;SDS011;20010;51.488;7.232;2022-07-21T15:13:19;13.80;;;12.80;;
33491;SDS011;20010;51.488;7.232;2022-07-21T15:15:53;15.70;;;14.57;;
33491;SDS011;20010;51.488;7.232;2022-07-21T15:18:21;17.80;;;16.30;;
33491;SDS011;20010;51.488;7.232;2022-07-21T15:20:50;18.58;;;17.27;;
33491;SDS011;20010;51.488;7.232;2022-07-21T15:23:20;17.67;;;16.27;;
33491;SDS011;20010;51.488;7.232;2022-07-21T15:25:49;15.85;;;14.75;;
33491;SDS011;20010;51.488;7.232;2022-07-21T15:28:16;16.52;;;15.27;;
33491;SDS011;20010;51.488;7.232;2022-07-21T15:30:50;14.68;;;13.65;;
33491;SDS011;20010;51.488;7.232;2022-07-21T15:33:17;13.27;;;12.38;;
33491;SDS011;20010;51.488;7.232;2022-07-21T15:35:48;11.77;;;11.02;;
33491;SDS011;20010;51.488;7.232;2022-07-21T15:38:25;12.15;;;11.35;;
33491;SDS011;20010;51.488;7.232;2022-07-21T15:40:52;11.68;;;10.98;;
33491;SDS011;20010;51.488;7.232;2022-07-21T15:45:56;11.70;;;10.90;;
33491;SDS011;20010;51.488;7.232;2022-07-21T15:48:28;11.77;;;10.98;;
33491;SDS011;20010;51.488;7.232;2022-07-21T15:51:03;13.88;;;12.75;;
33491;SDS011;20010;51.488;7.232;2022-07-21T15:53:37;13.07;;;11.98;;
33491;SDS011;20010;51.488;7.232;2022-07-21T15:56:07;12.57;;;11.75;;
33491;SDS011;20010;51.488;7.232;2022-07-21T15:58:43;12.65;;;11.65;;
33491;SDS011;20010;51.488;7.232;2022-07-21T16:01:38;10.73;;;10.05;;